Time;durP1;ratioP1;P1;durP2;ratioP2;P2;SDS_P1;SDS_P2;PMS_P1;PMS_P2;Temp;Humidity;BMP_temperature;BMP_pressure;BME280_temperature;BME280_humidity;BME280_pressure;Samples;Min_cycle;Max_cycle;Signal;HPM_P1;HPM_P2
2022/04/11 00:03:55;;;;;;;;;;;;;;;22.27;40.05;100628.09;20734813;27;97888;-78
2022/04/11 00:13:55;;;;;;;;;;;;;;;22.26;40.20;100638.75;20762894;27;97089;-78
2022/04/11 00:23:56;;;;;;;;;;;;;;;22.23;40.20;100634.56;20687161;27;99222;-78
2022/04/11 00:33:56;;;;;;;;;;;;;;;22.21;40.23;100647.03;20658259;28;97554;-78
2022/04/11 00:43:57;;;;;;;;;;;;;;;22.20;40.35;100655.88;20651221;28;97347;-77
2022/04/11 00:53:58;;;;;;;;;;;;;;;22.17;40.20;100662.25;20729699;27;98062;-78
2022/04/11 01:03:59;;;;;;;;;;;;;;;22.16;40.16;100667.66;20763944;27;97226;-76
2022/04/11 01:13:59;;;;;;;;;;;;;;;22.13;40.33;100662.59;20771895;27;98867;-77
2022/04/11 01:24:00;;;;;;;;;;;;;;;22.11;40.34;100660.09;20785420;27;97459;-76
2022/04/11 01:34:00;;;;;;;;;;;;;;;22.10;40.55;100668.13;20785160;27;97392;-75
2022/04/11 01:44:01;;;;;;;;;;;;;;;22.08;40.44;100681.41;20761770;27;98880;-76
2022/04/11 01:54:01;;;;;;;;;;;;;;;22.04;40.33;100696.63;20787805;27;98047;-76
2022/04/11 02:04:02;;;;;;;;;;;;;;;22.03;40.39;100694.09;20781112;27;98409;-77
2022/04/11 02:14:02;;;;;;;;;;;;;;;22.00;40.33;100705.72;20751441;27;99574;-77
2022/04/11 02:24:05;;;;;;;;;;;;;;;22.00;40.46;100699.63;20770594;27;106060;-77
2022/04/11 02:34:06;;;;;;;;;;;;;;;21.97;40.51;100718.31;20751469;27;97652;-77
2022/04/11 02:44:06;;;;;;;;;;;;;;;21.95;40.70;100717.56;20749830;27;96958;-77
2022/04/11 02:54:07;;;;;;;;;;;;;;;21.93;40.84;100715.06;20764887;27;96927;-77
2022/04/11 03:04:08;;;;;;;;;;;;;;;21.91;40.77;100724.91;20746629;27;97608;-77
2022/04/11 03:14:08;;;;;;;;;;;;;;;21.88;41.03;100723.31;20742217;27;97348;-77
2022/04/11 03:24:09;;;;;;;;;;;;;;;21.87;41.35;100737.47;20744325;27;101134;-76
2022/04/11 03:34:09;;;;;;;;;;;;;;;21.85;40.80;100744.66;20743761;27;97392;-76
2022/04/11 03:44:10;;;;;;;;;;;;;;;21.85;40.75;100751.69;20763506;27;97859;-77
2022/04/11 03:54:10;;;;;;;;;;;;;;;21.82;41.14;100760.69;20743616;27;96880;-77
2022/04/11 04:04:11;;;;;;;;;;;;;;;21.81;41.21;100773.97;20739537;27;97839;-75
2022/04/11 04:14:11;;;;;;;;;;;;;;;21.86;41.79;100780.59;20740675;27;100297;-78
2022/04/11 04:24:12;;;;;;;;;;;;;;;21.99;42.56;100785.78;20741172;27;98022;-77
2022/04/11 04:34:12;;;;;;;;;;;;;;;22.11;42.76;100791.13;20778609;27;97151;-78
2022/04/11 04:44:15;;;;;;;;;;;;;;;22.14;43.11;100810.19;20773394;27;97459;-81
2022/04/11 04:54:15;;;;;;;;;;;;;;;22.21;42.93;100814.03;20773802;27;97022;-77
2022/04/11 05:04:16;;;;;;;;;;;;;;;22.02;39.03;100829.53;20755165;27;97475;-75
2022/04/11 05:14:17;;;;;;;;;;;;;;;22.04;39.70;100830.28;20746440;27;99428;-77
2022/04/11 05:24:18;;;;;;;;;;;;;;;22.00;38.58;100828.84;20752110;27;97818;-72
2022/04/11 05:34:18;;;;;;;;;;;;;;;21.92;37.86;100829.38;20743273;27;99686;-74
2022/04/11 05:44:19;;;;;;;;;;;;;;;22.04;38.77;100827.66;20738184;27;97932;-73
2022/04/11 05:54:19;;;;;;;;;;;;;;;22.07;38.95;100835.34;20755846;27;96978;-74
2022/04/11 06:04:20;;;;;;;;;;;;;;;22.14;39.54;100847.13;20764904;27;97157;-74
2022/04/11 06:14:20;;;;;;;;;;;;;;;22.17;39.41;100846.06;20753336;27;97055;-75
2022/04/11 06:24:27;;;;;;;;;;;;;;;22.23;39.67;100830.59;20742017;27;97377;-75
2022/04/11 06:34:27;;;;;;;;;;;;;;;22.27;39.96;100836.47;20746423;27;97670;-76
2022/04/11 06:44:28;;;;;;;;;;;;;;;22.23;38.06;100838.50;20762897;27;97545;-79
2022/04/11 06:54:30;;;;;;;;;;;;;;;22.18;37.46;100843.28;20754928;27;101228;-78
2022/04/11 07:04:32;;;;;;;;;;;;;;;22.23;38.37;100851.69;20772226;27;98698;-78
2022/04/11 07:14:32;;;;;;;;;;;;;;;22.26;38.59;100861.16;20761214;27;97876;-76
2022/04/11 07:24:35;;;;;;;;;;;;;;;22.28;39.04;100853.16;20775709;27;97064;-77
2022/04/11 07:34:36;;;;;;;;;;;;;;;22.30;39.10;100851.22;20757232;27;98634;-77
2022/04/11 07:44:37;;;;;;;;;;;;;;;22.34;39.15;100856.16;20759118;27;97039;-78
2022/04/11 07:54:37;;;;;;;;;;;;;;;22.35;39.50;100855.22;20779993;27;100256;-79
2022/04/11 08:04:38;;;;;;;;;;;;;;;22.37;39.25;100855.97;20767367;27;97020;-77
2022/04/11 08:14:38;;;;;;;;;;;;;;;20.60;29.35;100859.63;20775265;27;97445;-78
2022/04/11 08:24:39;;;;;;;;;;;;;;;20.17;29.66;100854.56;20768498;27;98473;-76
2022/04/11 08:34:39;;;;;;;;;;;;;;;21.04;31.82;100844.34;20756556;27;97416;-77
2022/04/11 08:44:40;;;;;;;;;;;;;;;21.39;33.18;100840.22;20761965;27;97187;-78
2022/04/11 08:54:41;;;;;;;;;;;;;;;21.58;34.20;100845.88;20755088;27;97068;-78
2022/04/11 09:04:48;;;;;;;;;;;;;;;21.71;35.11;100842.34;20756290;27;97311;-76
2022/04/11 09:14:53;;;;;;;;;;;;;;;21.82;35.53;100844.22;20753845;27;96885;-77
2022/04/11 09:25:11;;;;;;;;;;;;;;;21.89;35.64;100832.25;20775305;27;96971;-77
2022/04/11 09:35:18;;;;;;;;;;;;;;;21.98;35.80;100830.75;20756360;27;96959;-77
2022/04/11 09:45:19;;;;;;;;;;;;;;;21.99;36.26;100833.25;20766374;27;97678;-78
2022/04/11 09:55:19;;;;;;;;;;;;;;;21.34;28.69;100826.53;20774012;27;100592;-77
2022/04/11 10:05:20;;;;;;;;;;;;;;;20.91;27.43;100833.00;20774075;27;97198;-77
2022/04/11 10:15:21;;;;;;;;;;;;;;;21.48;30.10;100817.63;20763572;27;97116;-76
2022/04/11 10:25:22;;;;;;;;;;;;;;;21.71;32.03;100823.91;20787120;27;97088;-76
2022/04/11 10:35:33;;;;;;;;;;;;;;;21.89;33.21;100809.38;20768301;27;96927;-75
2022/04/11 10:45:35;;;;;;;;;;;;;;;22.04;35.11;100803.91;20775830;27;98077;-75
2022/04/11 10:55:51;;;;;;;;;;;;;;;22.17;35.26;100803.84;20761807;27;97853;-75
2022/04/11 11:06:13;;;;;;;;;;;;;;;22.30;35.51;100790.56;20760372;27;97058;-76
2022/04/11 11:16:14;;;;;;;;;;;;;;;22.42;35.01;100800.19;20748415;27;96942;-75
2022/04/11 11:26:15;;;;;;;;;;;;;;;22.58;37.04;100788.47;20754007;27;100790;-75
2022/04/11 11:36:15;;;;;;;;;;;;;;;22.63;37.50;100792.47;20768619;27;97796;-76
2022/04/11 11:46:17;;;;;;;;;;;;;;;22.65;37.14;100789.69;20738808;27;102302;-75
2022/04/11 11:56:18;;;;;;;;;;;;;;;22.67;37.39;100779.88;20751953;27;97944;-76
2022/04/11 12:06:25;;;;;;;;;;;;;;;22.78;37.42;100768.47;20756377;27;98266;-75
2022/04/11 12:16:31;;;;;;;;;;;;;;;22.77;37.36;100769.44;20748409;27;97660;-75
2022/04/11 12:26:45;;;;;;;;;;;;;;;22.72;37.32;100769.78;20739903;27;98593;-75
2022/04/11 12:36:58;;;;;;;;;;;;;;;22.70;37.52;100759.34;20728342;27;101958;-77
2022/04/11 12:46:59;;;;;;;;;;;;;;;22.81;37.23;100745.31;20736109;27;97268;-76
2022/04/11 12:57:00;;;;;;;;;;;;;;;22.92;37.52;100744.44;20717359;27;98871;-76
2022/04/11 13:07:02;;;;;;;;;;;;;;;22.99;37.75;100734.25;20724041;27;97761;-77
2022/04/11 13:27:21;;;;;;;;;;;;;;;23.02;37.38;100724.28;20749232;27;102095;-79
2022/04/11 13:37:22;;;;;;;;;;;;;;;23.15;37.92;100712.72;20762154;27;96981;-79
2022/04/11 13:47:22;;;;;;;;;;;;;;;23.04;34.35;100716.22;20761026;27;98328;-77
2022/04/11 13:57:23;;;;;;;;;;;;;;;23.10;36.16;100706.97;20744570;27;97437;-77
2022/04/11 14:07:23;;;;;;;;;;;;;;;23.11;36.73;100698.09;20730792;27;98250;-75
2022/04/11 14:17:24;;;;;;;;;;;;;;;23.15;36.86;100689.78;20749022;27;98827;-77
2022/04/11 14:27:24;;;;;;;;;;;;;;;23.20;37.18;100678.88;20741805;27;99179;-77
2022/04/11 14:37:25;;;;;;;;;;;;;;;23.22;37.02;100684.00;20744132;27;98371;-75
2022/04/11 14:47:25;;;;;;;;;;;;;;;23.12;35.20;100690.03;20753731;27;97767;-77
2022/04/11 14:57:26;;;;;;;;;;;;;;;23.13;36.67;100681.16;20760822;27;97213;-77
2022/04/11 15:07:27;;;;;;;;;;;;;;;23.14;36.73;100676.69;20759448;27;97770;-76
2022/04/11 15:17:27;;;;;;;;;;;;;;;23.14;37.38;100679.34;20750890;27;97091;-77
2022/04/11 15:27:28;;;;;;;;;;;;;;;23.12;37.49;100671.53;20744435;27;98555;-77
2022/04/11 15:37:31;;;;;;;;;;;;;;;23.15;37.13;100673.91;20745699;27;97214;-76
2022/04/11 15:47:32;;;;;;;;;;;;;;;23.34;37.25;100659.25;20748649;27;97133;-76
2022/04/11 15:57:32;;;;;;;;;;;;;;;23.62;32.25;100656.94;20730700;27;98357;-78
2022/04/11 16:07:33;;;;;;;;;;;;;;;23.91;34.33;100654.50;20747686;27;96994;-77
2022/04/11 16:17:33;;;;;;;;;;;;;;;24.19;34.27;100652.16;20738085;27;100265;-74
2022/04/11 16:27:34;;;;;;;;;;;;;;;24.47;35.06;100647.09;20738913;27;100179;-75
2022/04/11 16:37:34;;;;;;;;;;;;;;;24.53;35.45;100659.81;20746818;27;101155;-76
2022/04/11 16:47:36;;;;;;;;;;;;;;;24.27;36.12;100648.84;20734157;27;99982;-78
2022/04/11 16:57:36;;;;;;;;;;;;;;;23.54;27.72;100662.88;20767330;27;99764;-77
2022/04/11 17:07:39;;;;;;;;;;;;;;;23.17;28.05;100684.41;20751058;27;96895;-79
2022/04/11 17:27:58;;;;;;;;;;;;;;;23.11;32.46;100701.56;20738992;27;98980;-77
2022/04/11 17:38:00;;;;;;;;;;;;;;;23.01;34.26;100709.38;20761472;27;97060;-81
2022/04/11 17:48:00;;;;;;;;;;;;;;;23.00;34.19;100710.34;20789347;27;98569;-79
2022/04/11 17:58:01;;;;;;;;;;;;;;;22.90;34.67;100724.41;20791967;27;98139;-78
2022/04/11 18:08:02;;;;;;;;;;;;;;;22.95;35.55;100730.16;20785037;27;101139;-77
2022/04/11 18:18:02;;;;;;;;;;;;;;;22.93;36.75;100735.56;20759581;27;97809;-78
2022/04/11 18:31:31;;;;;;;;;;;;;;;23.00;37.53;100738.56;20751911;27;98811;-78
2022/04/11 18:38:23;;;;;;;;;;;;;;;22.93;38.07;100756.69;20740065;27;97624;-74
2022/04/11 18:48:24;;;;;;;;;;;;;;;22.95;38.32;100770.63;20748362;27;97457;-76
2022/04/11 18:58:25;;;;;;;;;;;;;;;22.89;36.90;100776.38;20750699;27;97864;-81
2022/04/11 19:08:26;;;;;;;;;;;;;;;22.77;37.00;100780.81;20752217;27;96963;-76
2022/04/11 19:18:28;;;;;;;;;;;;;;;22.72;37.33;100775.06;20751374;27;97153;-77
2022/04/11 19:28:30;;;;;;;;;;;;;;;22.68;37.82;100774.47;20756139;27;97525;-75
2022/04/11 19:38:31;;;;;;;;;;;;;;;22.64;38.12;100770.38;20751995;27;97035;-77
2022/04/11 19:58:51;;;;;;;;;;;;;;;22.59;38.26;100763.78;20775018;27;96891;-76
2022/04/11 20:08:51;;;;;;;;;;;;;;;22.58;38.38;100762.91;20753987;27;100796;-75
2022/04/11 20:18:52;;;;;;;;;;;;;;;22.54;38.46;100766.75;20753232;27;97094;-76
2022/04/11 20:28:52;;;;;;;;;;;;;;;22.52;38.43;100771.31;20751159;27;98355;-75
2022/04/11 20:38:53;;;;;;;;;;;;;;;22.50;38.43;100775.88;20763536;27;97938;-75
2022/04/11 20:48:53;;;;;;;;;;;;;;;22.46;38.50;100772.66;20753213;27;97525;-76
2022/04/11 20:58:55;;;;;;;;;;;;;;;22.46;38.39;100775.28;20753534;27;101068;-76
2022/04/11 21:08:55;;;;;;;;;;;;;;;22.43;38.28;100772.03;20755957;27;97433;-74
2022/04/11 21:18:56;;;;;;;;;;;;;;;22.40;38.95;100759.94;20758197;27;97486;-75
2022/04/11 21:28:56;;;;;;;;;;;;;;;22.37;38.94;100771.53;20758192;27;97593;-76
2022/04/11 21:38:57;;;;;;;;;;;;;;;22.35;38.96;100767.28;20771299;27;97251;-76
2022/04/11 21:48:57;;;;;;;;;;;;;;;22.33;38.35;100779.78;20763852;27;98927;-76
2022/04/11 21:59:00;;;;;;;;;;;;;;;22.32;38.58;100778.09;20775200;27;97554;-76
2022/04/11 22:09:00;;;;;;;;;;;;;;;22.29;38.80;100783.59;20760695;27;97692;-77
2022/04/11 22:19:01;;;;;;;;;;;;;;;22.26;38.52;100787.31;20760430;27;96998;-76
2022/04/11 22:29:02;;;;;;;;;;;;;;;22.24;38.67;100786.59;20747951;27;97138;-74
2022/04/11 22:39:02;;;;;;;;;;;;;;;22.23;38.51;100800.75;20758458;27;97594;-76
2022/04/11 22:49:03;;;;;;;;;;;;;;;22.21;38.73;100806.13;20770150;27;99929;-75
2022/04/11 22:59:03;;;;;;;;;;;;;;;22.20;38.74;100788.63;20756848;27;96910;-75
2022/04/11 23:09:03;;;;;;;;;;;;;;;22.17;38.78;100785.38;20747869;27;97673;-74
2022/04/11 23:19:04;;;;;;;;;;;;;;;22.15;38.96;100777.56;20772817;27;97914;-74
2022/04/11 23:29:05;;;;;;;;;;;;;;;22.14;39.29;100772.41;20751882;27;96920;-75
2022/04/11 23:39:05;;;;;;;;;;;;;;;22.13;38.94;100771.59;20746027;27;97056;-74
2022/04/11 23:49:06;;;;;;;;;;;;;;;22.11;39.04;100770.84;20750453;27;98276;-75
2022/04/11 23:59:06;;;;;;;;;;;;;;;22.09;39.19;100764.00;20745827;27;97131;-75
